sensor_id;sensor_type;location;lat;lon;timestamp;temperature;humidity
4245;DHT22;2136;48.502;9.194;2023-04-24T00:00:40;14.10;60.30
4245;DHT22;2136;48.502;9.194;2023-04-24T00:03:07;14.00;60.40
4245;DHT22;2136;48.502;9.194;2023-04-24T00:05:34;14.00;60.50
4245;DHT22;2136;48.502;9.194;2023-04-24T00:08:01;14.00;60.70
4245;DHT22;2136;48.502;9.194;2023-04-24T00:10:28;14.00;60.80
4245;DHT22;2136;48.502;9.194;2023-04-24T00:12:55;14.00;60.90
4245;DHT22;2136;48.502;9.194;2023-04-24T00:15:23;14.00;61.10
4245;DHT22;2136;48.502;9.194;2023-04-24T00:17:50;14.00;61.20
4245;DHT22;2136;48.502;9.194;2023-04-24T00:20:17;14.00;61.40
4245;DHT22;2136;48.502;9.194;2023-04-24T00:22:44;14.00;61.40
4245;DHT22;2136;48.502;9.194;2023-04-24T00:25:11;14.00;62.70
4245;DHT22;2136;48.502;9.194;2023-04-24T00:27:38;14.00;62.70
4245;DHT22;2136;48.502;9.194;2023-04-24T00:30:06;14.00;63.00
4245;DHT22;2136;48.502;9.194;2023-04-24T00:32:34;14.00;63.20
4245;DHT22;2136;48.502;9.194;2023-04-24T00:35:01;14.00;62.90
4245;DHT22;2136;48.502;9.194;2023-04-24T00:37:28;14.00;62.80
4245;DHT22;2136;48.502;9.194;2023-04-24T00:39:55;14.00;62.80
4245;DHT22;2136;48.502;9.194;2023-04-24T00:42:22;14.00;62.70
4245;DHT22;2136;48.502;9.194;2023-04-24T00:44:49;14.00;63.50
4245;DHT22;2136;48.502;9.194;2023-04-24T00:47:16;14.00;62.70
4245;DHT22;2136;48.502;9.194;2023-04-24T00:49:44;14.00;62.90
4245;DHT22;2136;48.502;9.194;2023-04-24T00:52:11;13.90;63.00
4245;DHT22;2136;48.502;9.194;2023-04-24T00:54:43;13.90;63.40
4245;DHT22;2136;48.502;9.194;2023-04-24T00:57:10;13.90;63.80
4245;DHT22;2136;48.502;9.194;2023-04-24T00:59:36;13.90;64.10
4245;DHT22;2136;48.502;9.194;2023-04-24T01:02:04;13.90;64.50
4245;DHT22;2136;48.502;9.194;2023-04-24T01:04:31;13.90;65.10
4245;DHT22;2136;48.502;9.194;2023-04-24T01:07:00;13.80;65.30
4245;DHT22;2136;48.502;9.194;2023-04-24T01:09:27;13.80;65.60
4245;DHT22;2136;48.502;9.194;2023-04-24T01:11:54;13.80;66.00
4245;DHT22;2136;48.502;9.194;2023-04-24T01:14:22;13.90;66.80
4245;DHT22;2136;48.502;9.194;2023-04-24T01:16:49;14.00;66.10
4245;DHT22;2136;48.502;9.194;2023-04-24T01:19:16;13.90;66.10
4245;DHT22;2136;48.502;9.194;2023-04-24T01:21:47;13.90;67.20
4245;DHT22;2136;48.502;9.194;2023-04-24T01:24:19;13.90;68.90
4245;DHT22;2136;48.502;9.194;2023-04-24T01:26:46;13.90;70.20
4245;DHT22;2136;48.502;9.194;2023-04-24T01:29:13;13.80;71.10
4245;DHT22;2136;48.502;9.194;2023-04-24T01:31:40;13.80;72.90
4245;DHT22;2136;48.502;9.194;2023-04-24T01:34:07;13.70;75.00
4245;DHT22;2136;48.502;9.194;2023-04-24T01:36:35;13.70;76.30
4245;DHT22;2136;48.502;9.194;2023-04-24T01:39:02;13.60;77.40
4245;DHT22;2136;48.502;9.194;2023-04-24T01:41:30;13.60;78.70
4245;DHT22;2136;48.502;9.194;2023-04-24T01:43:57;13.50;81.00
4245;DHT22;2136;48.502;9.194;2023-04-24T01:46:24;13.50;83.20
4245;DHT22;2136;48.502;9.194;2023-04-24T01:48:52;13.50;85.30
4245;DHT22;2136;48.502;9.194;2023-04-24T01:51:19;13.40;86.70
4245;DHT22;2136;48.502;9.194;2023-04-24T01:53:45;13.40;88.40
4245;DHT22;2136;48.502;9.194;2023-04-24T01:56:12;13.30;89.50
4245;DHT22;2136;48.502;9.194;2023-04-24T01:58:42;13.30;90.50
4245;DHT22;2136;48.502;9.194;2023-04-24T02:01:09;13.20;91.00
4245;DHT22;2136;48.502;9.194;2023-04-24T02:03:41;13.20;91.60
4245;DHT22;2136;48.502;9.194;2023-04-24T02:06:08;13.20;92.30
4245;DHT22;2136;48.502;9.194;2023-04-24T02:08:35;13.20;93.10
4245;DHT22;2136;48.502;9.194;2023-04-24T02:11:01;13.20;93.60
4245;DHT22;2136;48.502;9.194;2023-04-24T02:13:28;13.20;93.90
4245;DHT22;2136;48.502;9.194;2023-04-24T02:15:58;13.20;94.00
4245;DHT22;2136;48.502;9.194;2023-04-24T02:18:25;13.20;93.80
4245;DHT22;2136;48.502;9.194;2023-04-24T02:20:51;13.20;93.80
4245;DHT22;2136;48.502;9.194;2023-04-24T02:23:19;13.20;94.00
4245;DHT22;2136;48.502;9.194;2023-04-24T02:25:46;13.20;93.70
4245;DHT22;2136;48.502;9.194;2023-04-24T02:28:12;13.20;93.10
4245;DHT22;2136;48.502;9.194;2023-04-24T02:30:41;13.20;93.10
4245;DHT22;2136;48.502;9.194;2023-04-24T02:33:09;13.10;93.10
4245;DHT22;2136;48.502;9.194;2023-04-24T02:35:37;13.10;93.10
4245;DHT22;2136;48.502;9.194;2023-04-24T02:38:04;13.10;92.60
4245;DHT22;2136;48.502;9.194;2023-04-24T02:40:31;13.10;92.50
4245;DHT22;2136;48.502;9.194;2023-04-24T02:42:58;13.00;93.40
4245;DHT22;2136;48.502;9.194;2023-04-24T02:45:25;13.00;94.50
4245;DHT22;2136;48.502;9.194;2023-04-24T02:47:52;13.00;95.40
4245;DHT22;2136;48.502;9.194;2023-04-24T02:50:20;13.00;96.40
4245;DHT22;2136;48.502;9.194;2023-04-24T02:52:47;13.00;97.10
4245;DHT22;2136;48.502;9.194;2023-04-24T02:55:14;13.00;97.70
4245;DHT22;2136;48.502;9.194;2023-04-24T02:57:41;13.10;98.10
4245;DHT22;2136;48.502;9.194;2023-04-24T03:00:08;13.00;98.30
4245;DHT22;2136;48.502;9.194;2023-04-24T03:02:36;13.00;98.50
4245;DHT22;2136;48.502;9.194;2023-04-24T03:05:03;13.00;98.10
4245;DHT22;2136;48.502;9.194;2023-04-24T03:07:32;13.00;97.70
4245;DHT22;2136;48.502;9.194;2023-04-24T03:09:59;13.00;97.00
4245;DHT22;2136;48.502;9.194;2023-04-24T03:12:26;13.00;96.30
4245;DHT22;2136;48.502;9.194;2023-04-24T03:14:52;13.10;96.10
4245;DHT22;2136;48.502;9.194;2023-04-24T03:17:19;13.10;96.20
4245;DHT22;2136;48.502;9.194;2023-04-24T03:19:46;13.10;96.20
4245;DHT22;2136;48.502;9.194;2023-04-24T03:22:13;13.10;95.90
4245;DHT22;2136;48.502;9.194;2023-04-24T03:24:41;13.00;96.20
4245;DHT22;2136;48.502;9.194;2023-04-24T03:27:08;13.00;97.20
4245;DHT22;2136;48.502;9.194;2023-04-24T03:29:35;12.90;98.10
4245;DHT22;2136;48.502;9.194;2023-04-24T03:32:02;12.90;98.30
4245;DHT22;2136;48.502;9.194;2023-04-24T03:34:29;12.90;98.80
4245;DHT22;2136;48.502;9.194;2023-04-24T03:36:55;12.90;99.40
4245;DHT22;2136;48.502;9.194;2023-04-24T03:39:22;12.90;99.90
4245;DHT22;2136;48.502;9.194;2023-04-24T03:41:52;12.90;99.20
4245;DHT22;2136;48.502;9.194;2023-04-24T03:44:18;12.80;98.80
4245;DHT22;2136;48.502;9.194;2023-04-24T03:46:45;12.80;98.30
4245;DHT22;2136;48.502;9.194;2023-04-24T03:49:12;12.80;97.90
4245;DHT22;2136;48.502;9.194;2023-04-24T03:51:39;12.70;97.40
4245;DHT22;2136;48.502;9.194;2023-04-24T03:54:06;12.80;97.50
4245;DHT22;2136;48.502;9.194;2023-04-24T03:56:32;12.70;97.60
4245;DHT22;2136;48.502;9.194;2023-04-24T03:59:01;12.60;97.70
4245;DHT22;2136;48.502;9.194;2023-04-24T04:01:27;12.60;97.60
4245;DHT22;2136;48.502;9.194;2023-04-24T04:03:56;12.70;97.60
4245;DHT22;2136;48.502;9.194;2023-04-24T04:06:23;12.60;98.10
4245;DHT22;2136;48.502;9.194;2023-04-24T04:08:49;12.60;98.60
4245;DHT22;2136;48.502;9.194;2023-04-24T04:11:16;12.60;98.90
4245;DHT22;2136;48.502;9.194;2023-04-24T04:13:43;12.50;99.10
4245;DHT22;2136;48.502;9.194;2023-04-24T04:16:12;12.50;98.90
4245;DHT22;2136;48.502;9.194;2023-04-24T04:18:39;12.50;98.70
4245;DHT22;2136;48.502;9.194;2023-04-24T04:21:06;12.50;98.70
4245;DHT22;2136;48.502;9.194;2023-04-24T04:23:33;12.50;99.10
4245;DHT22;2136;48.502;9.194;2023-04-24T04:26:00;12.50;99.30
4245;DHT22;2136;48.502;9.194;2023-04-24T04:28:27;12.50;99.40
4245;DHT22;2136;48.502;9.194;2023-04-24T04:30:54;12.50;99.30
4245;DHT22;2136;48.502;9.194;2023-04-24T04:33:22;12.50;99.30
4245;DHT22;2136;48.502;9.194;2023-04-24T04:35:49;12.60;99.20
4245;DHT22;2136;48.502;9.194;2023-04-24T04:38:17;12.60;99.00
4245;DHT22;2136;48.502;9.194;2023-04-24T04:40:45;12.60;98.60
4245;DHT22;2136;48.502;9.194;2023-04-24T04:43:12;12.60;98.00
4245;DHT22;2136;48.502;9.194;2023-04-24T04:45:40;12.70;97.70
4245;DHT22;2136;48.502;9.194;2023-04-24T04:48:08;12.60;97.00
4245;DHT22;2136;48.502;9.194;2023-04-24T04:50:39;12.60;96.60
4245;DHT22;2136;48.502;9.194;2023-04-24T04:53:06;12.60;96.60
4245;DHT22;2136;48.502;9.194;2023-04-24T04:55:33;12.60;97.20
4245;DHT22;2136;48.502;9.194;2023-04-24T04:58:00;12.50;98.10
4245;DHT22;2136;48.502;9.194;2023-04-24T05:00:27;12.50;98.80
4245;DHT22;2136;48.502;9.194;2023-04-24T05:02:54;12.40;99.10
4245;DHT22;2136;48.502;9.194;2023-04-24T05:05:21;12.40;99.50
4245;DHT22;2136;48.502;9.194;2023-04-24T05:07:49;12.30;99.90
4245;DHT22;2136;48.502;9.194;2023-04-24T05:10:16;12.20;99.90
4245;DHT22;2136;48.502;9.194;2023-04-24T05:12:43;12.10;99.90
4245;DHT22;2136;48.502;9.194;2023-04-24T05:15:10;12.00;99.90
4245;DHT22;2136;48.502;9.194;2023-04-24T05:17:37;12.10;99.90
4245;DHT22;2136;48.502;9.194;2023-04-24T05:20:06;12.00;99.90
4245;DHT22;2136;48.502;9.194;2023-04-24T05:22:33;11.90;99.90
4245;DHT22;2136;48.502;9.194;2023-04-24T05:25:02;11.90;99.80
4245;DHT22;2136;48.502;9.194;2023-04-24T05:27:29;11.80;99.70
4245;DHT22;2136;48.502;9.194;2023-04-24T05:29:56;11.80;99.40
4245;DHT22;2136;48.502;9.194;2023-04-24T05:32:23;11.80;98.60
4245;DHT22;2136;48.502;9.194;2023-04-24T05:34:50;11.70;97.80
4245;DHT22;2136;48.502;9.194;2023-04-24T05:37:17;11.70;97.30
4245;DHT22;2136;48.502;9.194;2023-04-24T05:39:44;11.50;96.30
4245;DHT22;2136;48.502;9.194;2023-04-24T05:42:12;11.50;96.70
4245;DHT22;2136;48.502;9.194;2023-04-24T05:44:39;11.50;97.10
4245;DHT22;2136;48.502;9.194;2023-04-24T05:47:05;11.40;97.70
4245;DHT22;2136;48.502;9.194;2023-04-24T05:49:32;11.50;99.10
4245;DHT22;2136;48.502;9.194;2023-04-24T05:51:59;11.40;99.10
4245;DHT22;2136;48.502;9.194;2023-04-24T05:54:26;11.50;99.20
4245;DHT22;2136;48.502;9.194;2023-04-24T05:56:53;11.60;98.90
4245;DHT22;2136;48.502;9.194;2023-04-24T05:59:22;11.50;98.40
4245;DHT22;2136;48.502;9.194;2023-04-24T06:01:49;11.40;98.50
4245;DHT22;2136;48.502;9.194;2023-04-24T06:04:15;11.40;98.40
4245;DHT22;2136;48.502;9.194;2023-04-24T06:06:42;11.60;98.30
4245;DHT22;2136;48.502;9.194;2023-04-24T06:09:09;11.70;97.50
4245;DHT22;2136;48.502;9.194;2023-04-24T06:11:37;11.50;96.40
4245;DHT22;2136;48.502;9.194;2023-04-24T06:14:04;11.50;95.90
4245;DHT22;2136;48.502;9.194;2023-04-24T06:16:32;11.60;95.20
4245;DHT22;2136;48.502;9.194;2023-04-24T06:18:59;11.60;94.80
4245;DHT22;2136;48.502;9.194;2023-04-24T06:21:26;11.60;94.80
4245;DHT22;2136;48.502;9.194;2023-04-24T06:23:53;11.80;94.40
4245;DHT22;2136;48.502;9.194;2023-04-24T06:26:21;11.90;92.90
4245;DHT22;2136;48.502;9.194;2023-04-24T06:28:50;12.10;92.60
4245;DHT22;2136;48.502;9.194;2023-04-24T06:31:17;12.20;92.20
4245;DHT22;2136;48.502;9.194;2023-04-24T06:33:45;12.30;90.60
4245;DHT22;2136;48.502;9.194;2023-04-24T06:36:12;12.40;88.70
4245;DHT22;2136;48.502;9.194;2023-04-24T06:38:39;12.40;87.20
4245;DHT22;2136;48.502;9.194;2023-04-24T06:41:06;12.40;86.20
4245;DHT22;2136;48.502;9.194;2023-04-24T06:43:33;12.30;86.20
4245;DHT22;2136;48.502;9.194;2023-04-24T06:46:00;12.30;86.60
4245;DHT22;2136;48.502;9.194;2023-04-24T06:48:28;12.20;85.70
4245;DHT22;2136;48.502;9.194;2023-04-24T06:50:57;12.20;85.00
4245;DHT22;2136;48.502;9.194;2023-04-24T06:53:23;12.20;83.40
4245;DHT22;2136;48.502;9.194;2023-04-24T06:55:50;12.20;84.70
4245;DHT22;2136;48.502;9.194;2023-04-24T06:58:17;12.30;85.20
4245;DHT22;2136;48.502;9.194;2023-04-24T07:00:44;12.50;84.70
4245;DHT22;2136;48.502;9.194;2023-04-24T07:03:11;12.60;82.80
4245;DHT22;2136;48.502;9.194;2023-04-24T07:05:38;12.60;81.50
4245;DHT22;2136;48.502;9.194;2023-04-24T07:08:06;12.60;80.70
4245;DHT22;2136;48.502;9.194;2023-04-24T07:10:34;12.70;81.00
4245;DHT22;2136;48.502;9.194;2023-04-24T07:13:01;12.80;79.80
4245;DHT22;2136;48.502;9.194;2023-04-24T07:15:28;12.90;79.50
4245;DHT22;2136;48.502;9.194;2023-04-24T07:17:55;13.20;79.60
4245;DHT22;2136;48.502;9.194;2023-04-24T07:20:22;13.40;76.70
4245;DHT22;2136;48.502;9.194;2023-04-24T07:22:49;13.60;76.10
4245;DHT22;2136;48.502;9.194;2023-04-24T07:25:18;13.90;75.00
4245;DHT22;2136;48.502;9.194;2023-04-24T07:27:45;14.00;72.40
4245;DHT22;2136;48.502;9.194;2023-04-24T07:30:13;14.00;71.10
4245;DHT22;2136;48.502;9.194;2023-04-24T07:32:40;13.90;70.90
4245;DHT22;2136;48.502;9.194;2023-04-24T07:35:08;13.80;68.00
4245;DHT22;2136;48.502;9.194;2023-04-24T07:37:35;13.60;67.30
4245;DHT22;2136;48.502;9.194;2023-04-24T07:40:02;13.50;66.50
4245;DHT22;2136;48.502;9.194;2023-04-24T07:42:31;13.40;67.00
4245;DHT22;2136;48.502;9.194;2023-04-24T07:45:00;13.30;67.80
4245;DHT22;2136;48.502;9.194;2023-04-24T07:47:27;13.40;67.60
4245;DHT22;2136;48.502;9.194;2023-04-24T07:49:53;13.60;68.20
4245;DHT22;2136;48.502;9.194;2023-04-24T07:52:20;13.80;68.70
4245;DHT22;2136;48.502;9.194;2023-04-24T07:54:47;13.90;68.20
4245;DHT22;2136;48.502;9.194;2023-04-24T07:57:15;14.00;66.00
4245;DHT22;2136;48.502;9.194;2023-04-24T07:59:43;14.00;64.80
4245;DHT22;2136;48.502;9.194;2023-04-24T08:02:10;14.00;64.90
4245;DHT22;2136;48.502;9.194;2023-04-24T08:04:37;14.00;64.50
4245;DHT22;2136;48.502;9.194;2023-04-24T08:07:04;14.00;63.90
4245;DHT22;2136;48.502;9.194;2023-04-24T08:09:31;14.10;64.20
4245;DHT22;2136;48.502;9.194;2023-04-24T08:11:57;14.20;63.90
4245;DHT22;2136;48.502;9.194;2023-04-24T08:14:24;14.30;63.30
4245;DHT22;2136;48.502;9.194;2023-04-24T08:16:54;14.30;62.10
4245;DHT22;2136;48.502;9.194;2023-04-24T08:19:21;14.40;61.40
4245;DHT22;2136;48.502;9.194;2023-04-24T08:21:48;14.50;61.10
4245;DHT22;2136;48.502;9.194;2023-04-24T08:24:15;14.70;60.40
4245;DHT22;2136;48.502;9.194;2023-04-24T08:26:42;14.90;59.70
4245;DHT22;2136;48.502;9.194;2023-04-24T08:29:09;15.00;59.10
4245;DHT22;2136;48.502;9.194;2023-04-24T08:31:36;15.00;58.10
4245;DHT22;2136;48.502;9.194;2023-04-24T08:34:04;14.90;57.70
4245;DHT22;2136;48.502;9.194;2023-04-24T08:36:31;14.90;57.20
4245;DHT22;2136;48.502;9.194;2023-04-24T08:38:59;14.90;56.80
4245;DHT22;2136;48.502;9.194;2023-04-24T08:41:27;14.90;56.10
4245;DHT22;2136;48.502;9.194;2023-04-24T08:43:55;14.90;55.50
4245;DHT22;2136;48.502;9.194;2023-04-24T08:46:24;15.00;54.40
4245;DHT22;2136;48.502;9.194;2023-04-24T08:48:52;14.90;54.50
4245;DHT22;2136;48.502;9.194;2023-04-24T08:51:20;14.80;53.40
4245;DHT22;2136;48.502;9.194;2023-04-24T08:53:48;14.70;53.30
4245;DHT22;2136;48.502;9.194;2023-04-24T08:56:16;14.70;53.10
4245;DHT22;2136;48.502;9.194;2023-04-24T08:58:43;14.70;52.40
4245;DHT22;2136;48.502;9.194;2023-04-24T09:01:11;14.70;53.20
4245;DHT22;2136;48.502;9.194;2023-04-24T09:03:39;14.80;52.50
4245;DHT22;2136;48.502;9.194;2023-04-24T09:06:06;14.90;52.00
4245;DHT22;2136;48.502;9.194;2023-04-24T09:08:36;15.10;52.20
4245;DHT22;2136;48.502;9.194;2023-04-24T09:11:03;15.30;51.60
4245;DHT22;2136;48.502;9.194;2023-04-24T09:13:30;16.10;51.70
4245;DHT22;2136;48.502;9.194;2023-04-24T09:15:58;17.10;49.90
4245;DHT22;2136;48.502;9.194;2023-04-24T09:18:26;18.20;48.10
4245;DHT22;2136;48.502;9.194;2023-04-24T09:21:00;19.40;46.80
4245;DHT22;2136;48.502;9.194;2023-04-24T09:23:28;21.10;44.70
4245;DHT22;2136;48.502;9.194;2023-04-24T09:25:57;22.40;42.70
4245;DHT22;2136;48.502;9.194;2023-04-24T09:28:26;22.90;39.50
4245;DHT22;2136;48.502;9.194;2023-04-24T09:31:07;22.20;38.10
4245;DHT22;2136;48.502;9.194;2023-04-24T09:33:35;21.10;37.50
4245;DHT22;2136;48.502;9.194;2023-04-24T09:36:02;20.30;39.80
4245;DHT22;2136;48.502;9.194;2023-04-24T09:38:34;20.00;40.30
4245;DHT22;2136;48.502;9.194;2023-04-24T09:41:04;19.50;39.80
4245;DHT22;2136;48.502;9.194;2023-04-24T09:43:31;19.50;41.80
4245;DHT22;2136;48.502;9.194;2023-04-24T09:46:04;20.00;41.60
4245;DHT22;2136;48.502;9.194;2023-04-24T09:48:32;19.60;41.30
4245;DHT22;2136;48.502;9.194;2023-04-24T09:50:59;19.10;41.40
4245;DHT22;2136;48.502;9.194;2023-04-24T09:53:27;18.80;42.20
4245;DHT22;2136;48.502;9.194;2023-04-24T09:55:55;18.40;42.70
4245;DHT22;2136;48.502;9.194;2023-04-24T09:58:27;19.20;43.80
4245;DHT22;2136;48.502;9.194;2023-04-24T10:00:55;20.90;43.70
4245;DHT22;2136;48.502;9.194;2023-04-24T10:03:24;23.80;43.30
4245;DHT22;2136;48.502;9.194;2023-04-24T10:05:53;26.90;39.60
4245;DHT22;2136;48.502;9.194;2023-04-24T10:08:20;29.80;37.10
4245;DHT22;2136;48.502;9.194;2023-04-24T10:10:48;31.90;30.60
4245;DHT22;2136;48.502;9.194;2023-04-24T10:13:15;31.60;28.10
4245;DHT22;2136;48.502;9.194;2023-04-24T10:15:43;29.90;27.20
4245;DHT22;2136;48.502;9.194;2023-04-24T10:18:11;27.80;28.20
4245;DHT22;2136;48.502;9.194;2023-04-24T10:20:39;25.80;28.60
4245;DHT22;2136;48.502;9.194;2023-04-24T10:23:06;24.10;30.10
4245;DHT22;2136;48.502;9.194;2023-04-24T10:25:34;22.90;33.00
4245;DHT22;2136;48.502;9.194;2023-04-24T10:28:02;23.20;34.50
4245;DHT22;2136;48.502;9.194;2023-04-24T10:30:30;23.90;35.70
4245;DHT22;2136;48.502;9.194;2023-04-24T10:33:02;26.60;35.10
4245;DHT22;2136;48.502;9.194;2023-04-24T10:35:31;28.40;29.50
4245;DHT22;2136;48.502;9.194;2023-04-24T10:38:01;27.50;28.00
4245;DHT22;2136;48.502;9.194;2023-04-24T10:40:31;26.30;28.40
4245;DHT22;2136;48.502;9.194;2023-04-24T10:42:59;26.90;29.10
4245;DHT22;2136;48.502;9.194;2023-04-24T10:45:26;28.20;27.50
4245;DHT22;2136;48.502;9.194;2023-04-24T10:47:57;27.40;27.10
4245;DHT22;2136;48.502;9.194;2023-04-24T10:50:28;26.10;28.30
4245;DHT22;2136;48.502;9.194;2023-04-24T10:53:05;24.80;29.50
4245;DHT22;2136;48.502;9.194;2023-04-24T10:55:44;23.50;30.40
4245;DHT22;2136;48.502;9.194;2023-04-24T10:58:11;22.30;31.80
4245;DHT22;2136;48.502;9.194;2023-04-24T11:00:39;21.50;33.00
4245;DHT22;2136;48.502;9.194;2023-04-24T11:03:09;20.80;34.40
4245;DHT22;2136;48.502;9.194;2023-04-24T11:05:55;20.30;35.90
4245;DHT22;2136;48.502;9.194;2023-04-24T11:08:25;19.50;36.70
4245;DHT22;2136;48.502;9.194;2023-04-24T11:14:07;18.30;38.90
4245;DHT22;2136;48.502;9.194;2023-04-24T11:16:43;17.80;40.00
4245;DHT22;2136;48.502;9.194;2023-04-24T11:19:18;17.40;40.40
4245;DHT22;2136;48.502;9.194;2023-04-24T11:21:48;17.00;41.40
4245;DHT22;2136;48.502;9.194;2023-04-24T11:24:24;17.00;42.20
4245;DHT22;2136;48.502;9.194;2023-04-24T11:26:53;18.60;43.50
4245;DHT22;2136;48.502;9.194;2023-04-24T11:29:21;20.20;42.50
4245;DHT22;2136;48.502;9.194;2023-04-24T11:31:48;21.30;40.20
4245;DHT22;2136;48.502;9.194;2023-04-24T11:34:17;21.50;38.40
4245;DHT22;2136;48.502;9.194;2023-04-24T11:36:45;21.80;37.90
4245;DHT22;2136;48.502;9.194;2023-04-24T11:39:14;21.90;36.00
4245;DHT22;2136;48.502;9.194;2023-04-24T11:41:41;21.40;35.30
4245;DHT22;2136;48.502;9.194;2023-04-24T11:44:08;20.70;35.60
4245;DHT22;2136;48.502;9.194;2023-04-24T11:46:36;20.10;36.50
4245;DHT22;2136;48.502;9.194;2023-04-24T11:49:05;19.30;37.20
4245;DHT22;2136;48.502;9.194;2023-04-24T11:51:32;18.60;37.60
4245;DHT22;2136;48.502;9.194;2023-04-24T11:54:00;18.00;38.80
4245;DHT22;2136;48.502;9.194;2023-04-24T11:56:29;17.80;40.10
4245;DHT22;2136;48.502;9.194;2023-04-24T11:58:56;17.60;40.50
4245;DHT22;2136;48.502;9.194;2023-04-24T12:01:22;17.50;41.30
4245;DHT22;2136;48.502;9.194;2023-04-24T12:03:50;17.40;40.60
4245;DHT22;2136;48.502;9.194;2023-04-24T12:06:17;17.30;41.00
4245;DHT22;2136;48.502;9.194;2023-04-24T12:08:47;17.10;41.60
4245;DHT22;2136;48.502;9.194;2023-04-24T12:11:16;16.70;41.30
4245;DHT22;2136;48.502;9.194;2023-04-24T12:13:47;16.40;42.20
4245;DHT22;2136;48.502;9.194;2023-04-24T12:16:14;16.20;42.80
4245;DHT22;2136;48.502;9.194;2023-04-24T12:18:42;16.00;43.40
4245;DHT22;2136;48.502;9.194;2023-04-24T12:21:17;15.80;44.10
4245;DHT22;2136;48.502;9.194;2023-04-24T12:23:45;15.60;44.20
4245;DHT22;2136;48.502;9.194;2023-04-24T12:26:12;15.40;45.00
4245;DHT22;2136;48.502;9.194;2023-04-24T12:28:39;15.20;45.40
4245;DHT22;2136;48.502;9.194;2023-04-24T12:31:07;15.30;45.00
4245;DHT22;2136;48.502;9.194;2023-04-24T12:33:35;15.50;45.40
4245;DHT22;2136;48.502;9.194;2023-04-24T12:36:02;15.70;44.70
4245;DHT22;2136;48.502;9.194;2023-04-24T12:38:30;16.00;45.10
4245;DHT22;2136;48.502;9.194;2023-04-24T12:41:06;16.40;44.50
4245;DHT22;2136;48.502;9.194;2023-04-24T12:43:34;16.70;43.70
4245;DHT22;2136;48.502;9.194;2023-04-24T12:46:00;16.90;42.10
4245;DHT22;2136;48.502;9.194;2023-04-24T12:48:29;16.90;42.10
4245;DHT22;2136;48.502;9.194;2023-04-24T12:50:57;17.10;42.30
4245;DHT22;2136;48.502;9.194;2023-04-24T12:53:27;17.10;42.10
4245;DHT22;2136;48.502;9.194;2023-04-24T12:55:55;16.90;41.20
4245;DHT22;2136;48.502;9.194;2023-04-24T12:58:22;16.60;41.10
4245;DHT22;2136;48.502;9.194;2023-04-24T13:00:49;16.30;41.60
4245;DHT22;2136;48.502;9.194;2023-04-24T13:03:15;16.40;42.70
4245;DHT22;2136;48.502;9.194;2023-04-24T13:05:44;16.70;43.30
4245;DHT22;2136;48.502;9.194;2023-04-24T13:08:10;17.10;42.10
4245;DHT22;2136;48.502;9.194;2023-04-24T13:10:38;17.40;41.70
4245;DHT22;2136;48.502;9.194;2023-04-24T13:13:06;17.90;42.20
4245;DHT22;2136;48.502;9.194;2023-04-24T13:15:33;18.30;41.30
4245;DHT22;2136;48.502;9.194;2023-04-24T13:18:00;18.80;41.00
4245;DHT22;2136;48.502;9.194;2023-04-24T13:20:27;19.50;40.70
4245;DHT22;2136;48.502;9.194;2023-04-24T13:22:55;20.00;39.70
4245;DHT22;2136;48.502;9.194;2023-04-24T13:25:22;20.10;39.60
4245;DHT22;2136;48.502;9.194;2023-04-24T13:27:50;19.90;39.00
4245;DHT22;2136;48.502;9.194;2023-04-24T13:30:17;19.40;38.10
4245;DHT22;2136;48.502;9.194;2023-04-24T13:32:44;18.90;38.60
4245;DHT22;2136;48.502;9.194;2023-04-24T13:35:11;18.50;39.60
4245;DHT22;2136;48.502;9.194;2023-04-24T13:37:38;18.30;40.40
4245;DHT22;2136;48.502;9.194;2023-04-24T13:40:07;18.20;40.60
4245;DHT22;2136;48.502;9.194;2023-04-24T13:42:34;18.00;40.50
4245;DHT22;2136;48.502;9.194;2023-04-24T13:45:01;17.80;40.20
4245;DHT22;2136;48.502;9.194;2023-04-24T13:47:28;17.50;40.20
4245;DHT22;2136;48.502;9.194;2023-04-24T13:49:55;17.30;40.40
4245;DHT22;2136;48.502;9.194;2023-04-24T13:52:22;17.00;40.50
4245;DHT22;2136;48.502;9.194;2023-04-24T13:54:49;16.80;41.10
4245;DHT22;2136;48.502;9.194;2023-04-24T13:57:17;16.60;41.50
4245;DHT22;2136;48.502;9.194;2023-04-24T13:59:45;16.60;42.60
4245;DHT22;2136;48.502;9.194;2023-04-24T14:02:12;16.50;42.50
4245;DHT22;2136;48.502;9.194;2023-04-24T14:04:39;16.40;42.40
4245;DHT22;2136;48.502;9.194;2023-04-24T14:07:05;16.50;43.20
4245;DHT22;2136;48.502;9.194;2023-04-24T14:09:33;16.40;43.60
4245;DHT22;2136;48.502;9.194;2023-04-24T14:12:00;16.40;43.20
4245;DHT22;2136;48.502;9.194;2023-04-24T14:14:29;16.30;43.30
4245;DHT22;2136;48.502;9.194;2023-04-24T14:16:57;16.30;43.40
4245;DHT22;2136;48.502;9.194;2023-04-24T14:19:23;16.10;42.60
4245;DHT22;2136;48.502;9.194;2023-04-24T14:21:50;15.90;42.30
4245;DHT22;2136;48.502;9.194;2023-04-24T14:24:18;15.80;42.70
4245;DHT22;2136;48.502;9.194;2023-04-24T14:26:44;15.70;42.70
4245;DHT22;2136;48.502;9.194;2023-04-24T14:29:12;15.60;42.80
4245;DHT22;2136;48.502;9.194;2023-04-24T14:31:40;15.50;43.70
4245;DHT22;2136;48.502;9.194;2023-04-24T14:34:07;15.40;43.80
4245;DHT22;2136;48.502;9.194;2023-04-24T14:36:34;15.30;43.70
4245;DHT22;2136;48.502;9.194;2023-04-24T14:39:01;15.20;43.60
4245;DHT22;2136;48.502;9.194;2023-04-24T14:41:31;15.10;43.70
4245;DHT22;2136;48.502;9.194;2023-04-24T14:44:01;15.10;44.00
4245;DHT22;2136;48.502;9.194;2023-04-24T14:46:28;15.00;44.10
4245;DHT22;2136;48.502;9.194;2023-04-24T14:48:57;14.90;43.50
4245;DHT22;2136;48.502;9.194;2023-04-24T14:51:24;14.90;44.10
4245;DHT22;2136;48.502;9.194;2023-04-24T14:53:52;14.90;44.30
4245;DHT22;2136;48.502;9.194;2023-04-24T14:56:19;14.90;44.40
4245;DHT22;2136;48.502;9.194;2023-04-24T14:58:46;15.00;45.00
4245;DHT22;2136;48.502;9.194;2023-04-24T15:01:13;15.00;44.80
4245;DHT22;2136;48.502;9.194;2023-04-24T15:03:40;15.10;44.90
4245;DHT22;2136;48.502;9.194;2023-04-24T15:06:08;15.00;44.70
4245;DHT22;2136;48.502;9.194;2023-04-24T15:08:35;15.00;44.50
4245;DHT22;2136;48.502;9.194;2023-04-24T15:11:02;15.00;44.80
4245;DHT22;2136;48.502;9.194;2023-04-24T15:13:29;15.00;45.10
4245;DHT22;2136;48.502;9.194;2023-04-24T15:15:56;15.00;45.40
4245;DHT22;2136;48.502;9.194;2023-04-24T15:18:22;15.00;45.40
4245;DHT22;2136;48.502;9.194;2023-04-24T15:20:49;15.00;45.00
4245;DHT22;2136;48.502;9.194;2023-04-24T15:23:18;15.00;45.00
4245;DHT22;2136;48.502;9.194;2023-04-24T15:25:44;15.00;45.30
4245;DHT22;2136;48.502;9.194;2023-04-24T15:28:12;15.00;45.70
4245;DHT22;2136;48.502;9.194;2023-04-24T15:30:39;15.00;45.90
4245;DHT22;2136;48.502;9.194;2023-04-24T15:33:06;15.00;46.00
4245;DHT22;2136;48.502;9.194;2023-04-24T15:35:33;15.00;45.90
4245;DHT22;2136;48.502;9.194;2023-04-24T15:38:01;15.10;46.20
4245;DHT22;2136;48.502;9.194;2023-04-24T15:40:31;15.00;46.10
4245;DHT22;2136;48.502;9.194;2023-04-24T15:42:57;15.10;46.80
4245;DHT22;2136;48.502;9.194;2023-04-24T15:45:25;15.10;46.10
4245;DHT22;2136;48.502;9.194;2023-04-24T15:47:52;15.10;46.70
4245;DHT22;2136;48.502;9.194;2023-04-24T15:50:18;15.10;46.90
4245;DHT22;2136;48.502;9.194;2023-04-24T15:52:47;15.10;46.70
4245;DHT22;2136;48.502;9.194;2023-04-24T15:55:14;15.10;46.60
4245;DHT22;2136;48.502;9.194;2023-04-24T15:57:42;15.10;46.60
4245;DHT22;2136;48.502;9.194;2023-04-24T16:00:10;15.00;46.20
4245;DHT22;2136;48.502;9.194;2023-04-24T16:02:38;15.00;46.60
4245;DHT22;2136;48.502;9.194;2023-04-24T16:05:06;15.00;46.40
4245;DHT22;2136;48.502;9.194;2023-04-24T16:07:33;15.00;46.30